DEELO ZZZ-EDDG
Flight info
| Callsign | DEELO |
|---|---|
| Flight time | N/A |
| Altitude | |
| Route | |
| Aircraft |
Departure
| Time | N/A |
|---|---|
| Airport | ZZZ |
Arrival
| Time | 2026-04-26 18:05 |
|---|---|
| Airport | Münster Osnabrück Airport (EDDG) |
| Time | Latitude | Longitude | Altitude | Speed | Heading |
|---|---|---|---|---|---|
| 2026-04-26 17:56 | 51.99209 | 7.55890 | 1607 ft | 112 kts | 34° |
| 2026-04-26 17:56 | 52.00577 | 7.57472 | 1712 ft | 125 kts | 38° |
| 2026-04-26 17:57 | 52.01880 | 7.59321 | 1843 ft | 126 kts | 38° |
| 2026-04-26 17:57 | 52.02579 | 7.60094 | 1702 ft | 124 kts | 20° |
| 2026-04-26 17:57 | 52.03444 | 7.60489 | 1489 ft | 128 kts | 18° |
| 2026-04-26 17:57 | 52.04266 | 7.60946 | 1415 ft | 121 kts | 21° |
| 2026-04-26 17:58 | 52.06451 | 7.62488 | 1369 ft | 106 kts | 26° |
| 2026-04-26 17:59 | 52.06736 | 7.64157 | 1209 ft | 120 kts | 156° |
| 2026-04-26 17:59 | 52.05973 | 7.63703 | 1019 ft | 128 kts | 240° |
| 2026-04-26 17:59 | 52.06137 | 7.62547 | 942 ft | 107 kts | 336° |
| 2026-04-26 17:59 | 52.06782 | 7.62786 | 883 ft | 97 kts | 32° |
| 2026-04-26 18:00 | 52.07318 | 7.63399 | 866 ft | 97 kts | 35° |
| 2026-04-26 18:00 | 52.07873 | 7.64086 | 866 ft | 104 kts | 39° |
| 2026-04-26 18:00 | 52.08455 | 7.64831 | 781 ft | 113 kts | 40° |
| 2026-04-26 18:00 | 52.08950 | 7.65823 | 756 ft | 110 kts | 54° |
| 2026-04-26 18:01 | 52.09406 | 7.66804 | 751 ft | 108 kts | 49° |
| 2026-04-26 18:01 | 52.09921 | 7.67671 | 716 ft | 109 kts | 41° |
| 2026-04-26 18:01 | 52.10472 | 7.68562 | 666 ft | 110 kts | 47° |
| 2026-04-26 18:01 | 52.10990 | 7.69489 | 659 ft | 110 kts | 49° |
| 2026-04-26 18:02 | 52.11457 | 7.70387 | 791 ft | 96 kts | 49° |
| 2026-04-26 18:02 | 52.11597 | 7.70668 | 851 ft | 94 kts | 51° |
| 2026-04-26 18:02 | 52.12203 | 7.72154 | 1024 ft | 95 kts | 56° |
| 2026-04-26 18:02 | 52.12585 | 7.73024 | 1098 ft | 95 kts | 55° |
| 2026-04-26 18:03 | 52.12939 | 7.73921 | 1153 ft | 98 kts | 55° |
| 2026-04-26 18:03 | 52.13296 | 7.74828 | 1243 ft | 96 kts | 56° |
| 2026-04-26 18:03 | 52.13639 | 7.75772 | 1309 ft | 96 kts | 57° |
| 2026-04-26 18:03 | 52.14171 | 7.76206 | 1403 ft | 91 kts | 342° |
| 2026-04-26 18:04 | 52.14519 | 7.75249 | 1127 ft | 124 kts | 285° |
| 2026-04-26 18:04 | 52.14534 | 7.73929 | 861 ft | 107 kts | 261° |
| 2026-04-26 18:04 | 52.14350 | 7.72760 | 624 ft | 104 kts | 255° |
| 2026-04-26 18:05 | 52.13977 | 7.70937 | 360 ft | 106 kts | 253° |
| 2026-04-26 18:05 | 52.13732 | 7.69762 | 227 ft | 109 kts | 254° |
| 2026-04-26 18:05 | 52.13532 | 7.68786 | 162 ft | 70 kts | 253° |
| 2026-04-26 18:05 | 52.13407 | 7.68253 | 164 ft | 25 kts | 216° |
| 2026-04-26 18:06 | 52.13316 | 7.68288 | 165 ft | 12 kts | 162° |
| 2026-04-26 18:06 | 52.13240 | 7.68327 | 165 ft | 11 kts | 159° |
| 2026-04-26 18:06 | 52.13167 | 7.68345 | 165 ft | 19 kts | 213° |
| 2026-04-26 18:06 | 52.13138 | 7.68243 | 164 ft | 0 kts | 262° |